Time;durP1;ratioP1;P1;durP2;ratioP2;P2;SDS_P1;SDS_P2;PMS_P1;PMS_P2;Temp;Humidity;BMP_temperature;BMP_pressure;BME280_temperature;BME280_humidity;BME280_pressure;Samples;Min_cycle;Max_cycle;Signal;HPM_P1;HPM_P2
2023/09/28 00:02:18;;;;;;;;;;;;;;;12.57;59.55;101336.36;106207;1291;59594;-57
2023/09/28 00:05:04;;;;;;;;;;;;;;;12.62;60.75;101335.09;106238;1289;59310;-57
2023/09/28 00:07:50;;;;;;;;;;;;;;;12.69;60.24;101332.76;106218;1289;74586;-56
2023/09/28 00:10:36;;;;;;;;;;;;;;;12.72;60.10;101329.25;106257;1288;68025;-58
2023/09/28 00:13:22;;;;;;;;;;;;;;;12.79;61.25;101330.19;106288;1289;71301;-58
2023/09/28 00:16:08;;;;;;;;;;;;;;;12.87;61.00;101327.84;106285;1289;59036;-58
2023/09/28 00:18:55;;;;;;;;;;;;;;;12.92;61.23;101328.63;106302;1289;58833;-58
2023/09/28 00:21:41;;;;;;;;;;;;;;;12.94;60.62;101323.60;106256;1288;73302;-58
2023/09/28 00:24:27;;;;;;;;;;;;;;;12.95;61.20;101326.34;106318;1289;69212;-58
2023/09/28 00:27:12;;;;;;;;;;;;;;;12.98;61.41;101321.80;106191;1288;73235;-57
2023/09/28 00:29:58;;;;;;;;;;;;;;;13.02;61.33;101325.16;106277;1288;59109;-57
2023/09/28 00:32:47;;;;;;;;;;;;;;;13.03;61.86;101323.42;106282;1288;59907;-57
2023/09/28 00:35:33;;;;;;;;;;;;;;;13.09;61.59;101321.60;106293;1289;73274;-58
2023/09/28 00:38:19;;;;;;;;;;;;;;;13.11;60.36;101316.91;106306;1288;68617;-57
2023/09/28 00:41:05;;;;;;;;;;;;;;;13.12;60.75;101317.92;106312;1289;71397;-57
2023/09/28 00:43:51;;;;;;;;;;;;;;;13.13;60.72;101315.67;106307;1288;59291;-57
2023/09/28 00:46:37;;;;;;;;;;;;;;;13.16;60.82;101315.48;106346;1289;58893;-57
2023/09/28 00:49:24;;;;;;;;;;;;;;;13.16;60.75;101313.90;106336;1289;74125;-57
2023/09/28 00:52:11;;;;;;;;;;;;;;;13.21;61.31;101314.19;106290;1291;68000;-58
2023/09/28 00:54:58;;;;;;;;;;;;;;;13.30;61.33;101312.51;106273;1289;71314;-56
2023/09/28 00:57:45;;;;;;;;;;;;;;;13.33;62.36;101309.15;106282;1289;59080;-57
2023/09/28 01:00:34;;;;;;;;;;;;;;;13.41;61.19;101303.30;105344;1289;61256;-56
2023/09/28 01:03:20;;;;;;;;;;;;;;;13.47;61.11;101305.80;104969;1289;73275;-57
2023/09/28 01:06:08;;;;;;;;;;;;;;;13.55;61.27;101306.50;105024;1289;69343;-57
2023/09/28 01:08:54;;;;;;;;;;;;;;;13.63;62.25;101304.28;105050;1293;72174;-57
2023/09/28 01:11:41;;;;;;;;;;;;;;;13.72;61.46;101299.10;104961;1289;61820;-57
2023/09/28 01:14:27;;;;;;;;;;;;;;;13.84;62.14;101299.57;105028;1289;61234;-56
2023/09/28 01:17:13;;;;;;;;;;;;;;;13.93;61.42;101299.07;105011;1288;73302;-56
2023/09/28 01:20:00;;;;;;;;;;;;;;;14.01;61.69;101298.22;105070;1289;67997;-56
2023/09/28 01:22:48;;;;;;;;;;;;;;;14.09;61.76;101296.30;104999;1289;70752;-57
2023/09/28 01:25:35;;;;;;;;;;;;;;;14.19;61.33;101294.19;104908;1289;61276;-57
2023/09/28 01:28:22;;;;;;;;;;;;;;;14.20;61.23;101288.27;105014;1290;59192;-56
2023/09/28 01:31:08;;;;;;;;;;;;;;;14.23;61.55;101288.38;104970;1289;78140;-57
2023/09/28 01:33:54;;;;;;;;;;;;;;;14.33;61.61;101286.80;105025;1289;71310;-56
2023/09/28 01:36:40;;;;;;;;;;;;;;;14.33;61.68;101283.33;104943;1288;71073;-57
2023/09/28 01:39:27;;;;;;;;;;;;;;;14.33;62.86;101281.25;104959;1289;61059;-57
2023/09/28 01:42:13;;;;;;;;;;;;;;;14.34;61.89;101280.53;105024;1289;61524;-56
2023/09/28 01:44:59;;;;;;;;;;;;;;;14.34;62.66;101277.42;105049;1294;76054;-57
2023/09/28 01:47:45;;;;;;;;;;;;;;;14.41;62.19;101272.27;105026;1288;70001;-57
2023/09/28 01:50:32;;;;;;;;;;;;;;;14.46;61.81;101267.13;104861;1289;74536;-57
2023/09/28 01:53:17;;;;;;;;;;;;;;;14.44;62.38;101264.75;106361;1288;58688;-58
2023/09/28 01:56:04;;;;;;;;;;;;;;;14.43;62.27;101264.95;106288;1289;59038;-57
2023/09/28 01:58:50;;;;;;;;;;;;;;;14.43;62.38;101263.38;105509;1289;74351;-56
2023/09/28 02:01:36;;;;;;;;;;;;;;;14.41;62.43;101269.64;105031;1289;68016;-57
2023/09/28 02:04:22;;;;;;;;;;;;;;;14.45;63.19;101262.48;105009;1289;73548;-57
2023/09/28 02:07:09;;;;;;;;;;;;;;;14.47;62.18;101261.02;104973;1289;61206;-57
2023/09/28 02:09:55;;;;;;;;;;;;;;;14.53;62.59;101260.72;105041;1289;61061;-57
2023/09/28 02:12:44;;;;;;;;;;;;;;;14.57;62.30;101260.95;104951;1289;72327;-57
2023/09/28 02:15:30;;;;;;;;;;;;;;;14.59;62.96;101257.44;104998;1289;67362;-57
2023/09/28 02:18:16;;;;;;;;;;;;;;;14.60;62.25;101257.27;104925;1289;74002;-57
2023/09/28 02:21:03;;;;;;;;;;;;;;;14.59;62.12;101257.27;104932;1289;62137;-56
2023/09/28 02:23:49;;;;;;;;;;;;;;;14.60;62.18;101255.34;104936;1291;61808;-56
2023/09/28 02:26:35;;;;;;;;;;;;;;;14.59;62.28;101253.45;104926;1292;75348;-55
2023/09/28 02:29:22;;;;;;;;;;;;;;;14.56;62.26;101254.55;104884;1289;71381;-57
2023/09/28 02:32:08;;;;;;;;;;;;;;;14.54;62.35;101254.11;104952;1292;73971;-57
2023/09/28 02:34:54;;;;;;;;;;;;;;;14.52;62.31;101257.11;104974;1289;62412;-57
2023/09/28 02:37:42;;;;;;;;;;;;;;;14.52;62.27;101259.01;105018;1289;61313;-56
2023/09/28 02:40:29;;;;;;;;;;;;;;;14.51;62.55;101253.99;104988;1288;78546;-57
2023/09/28 02:43:15;;;;;;;;;;;;;;;14.49;62.29;101254.05;101336;1289;5003024;-57
2023/09/28 02:46:01;;;;;;;;;;;;;;;14.50;62.71;101256.97;104994;1289;71379;-56
2023/09/28 02:48:48;;;;;;;;;;;;;;;14.55;62.54;101255.28;105015;1289;61271;-57
2023/09/28 02:51:34;;;;;;;;;;;;;;;14.57;62.47;101255.91;105029;1289;61182;-56
2023/09/28 02:54:20;;;;;;;;;;;;;;;14.58;62.54;101258.50;104990;1289;72298;-57
2023/09/28 02:57:06;;;;;;;;;;;;;;;14.60;62.61;101258.82;105083;1289;67221;-57
2023/09/28 02:59:53;;;;;;;;;;;;;;;14.58;63.25;101258.84;104983;1289;75420;-57
2023/09/28 03:02:39;;;;;;;;;;;;;;;14.59;62.92;101259.02;104985;1289;61536;-56
2023/09/28 03:05:28;;;;;;;;;;;;;;;14.59;63.12;101258.84;105024;1289;61176;-56
2023/09/28 03:08:14;;;;;;;;;;;;;;;14.58;63.00;101261.27;105048;1289;74985;-57
2023/09/28 03:11:00;;;;;;;;;;;;;;;14.55;63.00;101259.45;104990;1289;68239;-56
2023/09/28 03:13:48;;;;;;;;;;;;;;;14.51;62.97;101263.39;105010;1289;75560;-57
2023/09/28 03:16:34;;;;;;;;;;;;;;;14.45;62.65;101260.73;105022;1289;61275;-57
2023/09/28 03:19:20;;;;;;;;;;;;;;;14.40;62.92;101264.29;105107;1287;59324;-57
2023/09/28 03:22:07;;;;;;;;;;;;;;;14.31;62.98;101269.48;105020;1291;73168;-56
2023/09/28 03:24:53;;;;;;;;;;;;;;;14.22;62.94;101265.52;104969;1289;67127;-57
2023/09/28 03:27:40;;;;;;;;;;;;;;;14.12;63.03;101269.54;105015;1292;74218;-56
2023/09/28 03:30:28;;;;;;;;;;;;;;;14.04;63.05;101268.66;105008;1289;61282;-57
2023/09/28 03:33:14;;;;;;;;;;;;;;;13.98;63.11;101267.42;104969;1289;59936;-56
2023/09/28 03:36:01;;;;;;;;;;;;;;;13.92;63.23;101263.71;105041;1289;73285;-57
2023/09/28 03:38:47;;;;;;;;;;;;;;;13.87;63.73;101262.08;104977;1290;67764;-57
2023/09/28 03:41:33;;;;;;;;;;;;;;;13.82;63.90;101262.69;106296;1289;71467;-58
2023/09/28 03:44:19;;;;;;;;;;;;;;;13.78;63.84;101260.52;106257;1288;59065;-58
2023/09/28 03:47:05;;;;;;;;;;;;;;;13.77;64.16;101262.96;106313;1289;59071;-58
2023/09/28 03:49:51;;;;;;;;;;;;;;;13.78;63.80;101262.77;106290;1292;75082;-58
2023/09/28 03:52:37;;;;;;;;;;;;;;;13.80;63.93;101257.70;106264;1289;69156;-55
2023/09/28 03:55:23;;;;;;;;;;;;;;;13.81;63.83;101265.32;106294;1289;71271;-58
2023/09/28 03:58:09;;;;;;;;;;;;;;;13.78;63.85;101262.95;106269;1289;59075;-57
2023/09/28 04:00:57;;;;;;;;;;;;;;;13.76;64.19;101263.66;106316;1288;59703;-58
2023/09/28 04:03:43;;;;;;;;;;;;;;;13.73;64.35;101262.17;106305;1288;74527;-57
2023/09/28 04:06:29;;;;;;;;;;;;;;;13.71;64.29;101261.02;106293;1289;67485;-58
2023/09/28 04:09:15;;;;;;;;;;;;;;;13.66;64.14;101264.04;106280;1292;71801;-57
2023/09/28 04:12:01;;;;;;;;;;;;;;;13.60;64.38;101262.93;106274;1288;58439;-58
2023/09/28 04:14:47;;;;;;;;;;;;;;;13.52;64.02;101260.66;106279;1289;59340;-58
2023/09/28 04:17:34;;;;;;;;;;;;;;;13.47;64.20;101256.27;106307;1289;73325;-58
2023/09/28 04:20:20;;;;;;;;;;;;;;;13.43;64.18;101254.09;106300;1290;68435;-58
2023/09/28 04:23:08;;;;;;;;;;;;;;;13.37;64.36;101254.89;106259;1288;71254;-56
2023/09/28 04:25:54;;;;;;;;;;;;;;;13.31;64.25;101257.41;106291;1289;59350;-58
2023/09/28 04:28:40;;;;;;;;;;;;;;;13.26;64.64;101253.85;106288;1289;59095;-57
2023/09/28 04:31:26;;;;;;;;;;;;;;;13.19;64.43;101253.44;106239;1289;75073;-58
2023/09/28 04:34:13;;;;;;;;;;;;;;;13.14;64.61;101251.95;106248;1289;67216;-58
2023/09/28 04:36:59;;;;;;;;;;;;;;;13.09;64.46;101253.58;106241;1289;71532;-58
2023/09/28 04:39:45;;;;;;;;;;;;;;;13.06;64.49;101251.73;106065;1291;59296;-58
2023/09/28 04:42:31;;;;;;;;;;;;;;;13.03;64.43;101247.79;106052;1292;58966;-57
2023/09/28 04:45:18;;;;;;;;;;;;;;;12.98;65.01;101246.16;106044;1292;74294;-58
2023/09/28 04:48:05;;;;;;;;;;;;;;;12.95;64.77;101245.86;105940;1292;68377;-57
2023/09/28 04:50:50;;;;;;;;;;;;;;;12.91;64.88;101248.70;106012;1291;72537;-57
2023/09/28 04:53:36;;;;;;;;;;;;;;;12.89;64.93;101248.55;106028;1293;59034;-58
2023/09/28 04:56:22;;;;;;;;;;;;;;;12.86;64.89;101253.45;106046;1293;59445;-57
2023/09/28 04:59:08;;;;;;;;;;;;;;;12.83;65.18;101252.80;106025;1292;73713;-57
2023/09/28 05:01:54;;;;;;;;;;;;;;;12.82;64.88;101250.92;105952;1292;67618;-55
2023/09/28 05:04:40;;;;;;;;;;;;;;;12.77;65.22;101250.63;106035;1292;71462;-57
2023/09/28 05:07:26;;;;;;;;;;;;;;;12.76;65.54;101250.83;105862;1292;59625;-58
2023/09/28 05:10:12;;;;;;;;;;;;;;;12.75;65.53;101251.36;106018;1292;59083;-58
2023/09/28 05:12:58;;;;;;;;;;;;;;;12.75;65.33;101248.77;106164;1291;75673;-58
2023/09/28 05:15:44;;;;;;;;;;;;;;;12.77;66.02;101251.51;106260;1291;67350;-57
2023/09/28 05:18:30;;;;;;;;;;;;;;;12.80;65.58;101249.56;106166;1291;71985;-58
2023/09/28 05:21:16;;;;;;;;;;;;;;;12.80;65.56;101253.36;105993;1291;313683;-58
2023/09/28 05:24:01;;;;;;;;;;;;;;;12.80;65.94;101251.64;106188;1291;59340;-57
2023/09/28 05:26:48;;;;;;;;;;;;;;;12.84;66.14;101254.86;106163;1291;73252;-58
2023/09/28 05:29:34;;;;;;;;;;;;;;;12.89;65.97;101254.61;102070;1291;5003599;-57
2023/09/28 05:32:20;;;;;;;;;;;;;;;12.91;66.00;101250.08;106209;1291;73263;-57
2023/09/28 05:35:06;;;;;;;;;;;;;;;12.91;66.03;101257.17;106235;1291;59351;-58
2023/09/28 05:37:52;;;;;;;;;;;;;;;12.92;65.84;101257.16;106184;1290;58893;-58
2023/09/28 05:40:38;;;;;;;;;;;;;;;12.95;65.97;101258.16;106198;1291;75857;-56
2023/09/28 05:43:23;;;;;;;;;;;;;;;12.99;66.19;101257.21;106202;1291;67412;-57
2023/09/28 05:46:09;;;;;;;;;;;;;;;13.06;66.37;101255.89;106194;1290;71638;-57
2023/09/28 05:48:55;;;;;;;;;;;;;;;13.12;65.98;101255.08;106223;1292;58766;-57
2023/09/28 05:51:41;;;;;;;;;;;;;;;13.20;66.15;101259.48;106131;1291;58949;-58
2023/09/28 05:54:27;;;;;;;;;;;;;;;13.31;66.46;101260.87;106165;1290;74618;-57
2023/09/28 05:57:13;;;;;;;;;;;;;;;13.48;66.42;101263.01;106208;1288;68778;-58
2023/09/28 05:59:58;;;;;;;;;;;;;;;13.59;66.67;101262.59;106165;1290;71413;-58
2023/09/28 06:02:44;;;;;;;;;;;;;;;13.70;66.51;101262.58;106102;1292;58974;-58
2023/09/28 06:05:31;;;;;;;;;;;;;;;13.84;66.78;101256.59;106177;1291;59348;-58
2023/09/28 06:08:18;;;;;;;;;;;;;;;14.01;66.88;101264.05;106166;1290;73163;-58
2023/09/28 06:11:04;;;;;;;;;;;;;;;14.19;66.90;101266.11;105553;1294;67196;-57
2023/09/28 06:13:50;;;;;;;;;;;;;;;14.40;67.02;101266.53;104889;1289;71389;-56
2023/09/28 06:16:36;;;;;;;;;;;;;;;14.62;66.64;101271.27;104863;1289;62888;-57
2023/09/28 06:19:23;;;;;;;;;;;;;;;14.85;67.43;101275.08;104911;1290;62933;-56
2023/09/28 06:22:09;;;;;;;;;;;;;;;15.13;67.07;101271.11;104894;1289;76102;-56
2023/09/28 06:24:55;;;;;;;;;;;;;;;15.30;67.16;101276.58;101352;1288;5004539;-56
2023/09/28 06:27:41;;;;;;;;;;;;;;;15.51;67.35;101276.77;106370;1288;71287;-57
2023/09/28 06:30:27;;;;;;;;;;;;;;;15.73;67.78;101275.48;106302;1289;59234;-57
2023/09/28 06:33:13;;;;;;;;;;;;;;;15.95;67.50;101279.73;106315;1288;58966;-56
2023/09/28 06:35:59;;;;;;;;;;;;;;;16.18;67.27;101273.67;106280;1289;74565;-57
2023/09/28 06:38:46;;;;;;;;;;;;;;;16.44;67.29;101277.09;106310;1288;69188;-57
2023/09/28 06:41:32;;;;;;;;;;;;;;;16.76;67.00;101275.27;106358;1287;73428;-56
2023/09/28 06:44:17;;;;;;;;;;;;;;;17.05;67.08;101273.64;106295;1291;59400;-57
2023/09/28 06:47:03;;;;;;;;;;;;;;;17.35;67.12;101274.73;106320;1289;59940;-57
2023/09/28 06:49:49;;;;;;;;;;;;;;;17.72;67.00;101272.41;106346;1289;74600;-57
2023/09/28 06:52:35;;;;;;;;;;;;;;;18.08;66.83;101272.16;106328;1291;68645;-57
2023/09/28 06:55:24;;;;;;;;;;;;;;;18.39;66.82;101269.26;106336;1288;72379;-57
2023/09/28 06:58:14;;;;;;;;;;;;;;;18.68;66.39;101273.23;106288;1288;59295;-57
2023/09/28 07:01:00;;;;;;;;;;;;;;;18.96;66.30;101275.93;106300;1289;59933;-55
2023/09/28 07:03:52;;;;;;;;;;;;;;;19.28;66.46;101275.63;106316;1289;73192;-57
2023/09/28 07:06:38;;;;;;;;;;;;;;;19.60;66.47;101275.17;106302;1288;68595;-56
2023/09/28 07:09:24;;;;;;;;;;;;;;;19.97;66.45;101276.52;106344;1289;72576;-55
2023/09/28 07:12:12;;;;;;;;;;;;;;;20.30;65.44;101280.96;106368;1289;59926;-57
2023/09/28 07:14:58;;;;;;;;;;;;;;;20.36;65.44;101281.19;106311;1289;59372;-56
2023/09/28 07:17:44;;;;;;;;;;;;;;;20.44;64.57;101283.63;106341;1289;73414;-57
2023/09/28 07:20:30;;;;;;;;;;;;;;;20.41;64.38;101282.91;106324;1289;67514;-56
2023/09/28 07:23:16;;;;;;;;;;;;;;;20.65;65.44;101279.33;106280;1289;72945;-57
2023/09/28 07:26:02;;;;;;;;;;;;;;;21.04;65.01;101282.69;106362;1288;58995;-57
2023/09/28 07:28:48;;;;;;;;;;;;;;;21.22;64.81;101278.84;106290;1289;58896;-58
2023/09/28 07:31:34;;;;;;;;;;;;;;;21.52;64.61;101285.40;106216;1289;73734;-57
2023/09/28 07:34:20;;;;;;;;;;;;;;;21.70;64.95;101286.77;106349;1289;67420;-57
2023/09/28 07:37:05;;;;;;;;;;;;;;;22.06;65.43;101284.33;106259;1289;71361;-57
2023/09/28 07:39:51;;;;;;;;;;;;;;;22.69;65.57;101281.90;106274;1288;59434;-57
2023/09/28 07:42:41;;;;;;;;;;;;;;;23.39;65.58;101287.02;106295;1288;59229;-56
2023/09/28 07:45:27;;;;;;;;;;;;;;;23.86;63.98;101290.39;106336;1288;74970;-57
2023/09/28 07:48:12;;;;;;;;;;;;;;;23.98;64.38;101291.02;106274;1289;68428;-57
2023/09/28 07:50:58;;;;;;;;;;;;;;;24.29;63.42;101292.64;106321;1288;72991;-57
2023/09/28 07:53:44;;;;;;;;;;;;;;;24.41;62.36;101296.64;106281;1289;59855;-58
2023/09/28 07:56:30;;;;;;;;;;;;;;;24.51;62.42;101297.41;106318;1288;59692;-58
2023/09/28 07:59:16;;;;;;;;;;;;;;;24.63;60.39;101300.69;106377;1289;74172;-57
2023/09/28 08:02:02;;;;;;;;;;;;;;;24.74;59.64;101299.80;106295;1289;67550;-58
2023/09/28 08:04:48;;;;;;;;;;;;;;;24.98;60.85;101297.93;106369;1289;73026;-57
2023/09/28 08:07:34;;;;;;;;;;;;;;;25.23;59.86;101295.20;106355;1289;58990;-58
2023/09/28 08:10:21;;;;;;;;;;;;;;;25.56;58.92;101298.09;106331;1288;59426;-59
2023/09/28 08:13:06;;;;;;;;;;;;;;;25.93;60.12;101304.38;106363;1289;73050;-57
2023/09/28 08:15:53;;;;;;;;;;;;;;;26.21;57.31;101308.77;105746;1290;68210;-58
2023/09/28 08:18:40;;;;;;;;;;;;;;;26.22;55.83;101304.77;105012;1291;72314;-56
2023/09/28 08:21:26;;;;;;;;;;;;;;;26.36;56.69;101302.17;104989;1289;61261;-56
2023/09/28 08:24:12;;;;;;;;;;;;;;;26.82;58.20;101305.23;104985;1289;61244;-56
2023/09/28 08:26:59;;;;;;;;;;;;;;;27.55;58.67;101306.27;105007;1289;73898;-56
2023/09/28 08:29:45;;;;;;;;;;;;;;;28.29;58.95;101308.17;104892;1290;67615;-57
2023/09/28 08:32:31;;;;;;;;;;;;;;;28.90;57.97;101299.63;104942;1289;75349;-57
2023/09/28 08:35:17;;;;;;;;;;;;;;;29.39;56.30;101301.94;104965;1289;61280;-56
2023/09/28 08:38:04;;;;;;;;;;;;;;;29.59;56.40;101297.40;104990;1289;61222;-56
2023/09/28 08:40:57;;;;;;;;;;;;;;;29.99;56.02;101297.17;104934;1289;73172;-56
2023/09/28 08:43:46;;;;;;;;;;;;;;;30.27;54.77;101296.05;104934;1289;71302;-56
2023/09/28 08:46:38;;;;;;;;;;;;;;;30.22;49.00;101294.77;104974;1291;71706;-56
2023/09/28 08:49:29;;;;;;;;;;;;;;;29.94;51.21;101290.10;104994;1288;61249;-57
2023/09/28 08:52:16;;;;;;;;;;;;;;;30.22;51.15;101286.05;104991;1289;61141;-57
2023/09/28 08:55:03;;;;;;;;;;;;;;;30.65;50.00;101285.20;104973;1292;73157;-57
2023/09/28 08:57:50;;;;;;;;;;;;;;;31.11;50.42;101292.20;104885;1289;67147;-57
2023/09/28 09:00:37;;;;;;;;;;;;;;;30.90;44.87;101289.33;104892;1292;74124;-56
2023/09/28 09:03:24;;;;;;;;;;;;;;;30.53;45.21;101285.73;104881;1289;61282;-57
2023/09/28 09:06:10;;;;;;;;;;;;;;;30.98;44.95;101288.94;104865;1289;61347;-57
2023/09/28 09:09:00;;;;;;;;;;;;;;;31.23;43.35;101286.20;104929;1288;72570;-57
2023/09/28 09:11:49;;;;;;;;;;;;;;;31.60;43.35;101285.88;104914;1290;67283;-58
2023/09/28 09:14:37;;;;;;;;;;;;;;;31.72;41.92;101283.15;104978;1289;71109;-58
2023/09/28 09:17:33;;;;;;;;;;;;;;;32.14;41.89;101276.59;104971;1301;61164;-58
2023/09/28 09:20:21;;;;;;;;;;;;;;;32.32;41.14;101275.45;104962;1289;61192;-57
2023/09/28 09:23:12;;;;;;;;;;;;;;;32.44;40.50;101269.57;105011;1288;73086;-58
2023/09/28 09:25:58;;;;;;;;;;;;;;;32.59;38.11;101264.17;104983;1289;70859;-58
2023/09/28 09:28:48;;;;;;;;;;;;;;;32.59;38.77;101259.53;104880;1293;71179;-58
2023/09/28 09:31:36;;;;;;;;;;;;;;;33.32;41.08;101253.58;104937;1287;61162;-58
2023/09/28 09:34:22;;;;;;;;;;;;;;;33.58;36.49;101250.14;104974;1290;59172;-59
2023/09/28 09:37:11;;;;;;;;;;;;;;;33.66;39.16;101245.88;105000;1291;73231;-58
2023/09/28 09:40:11;;;;;;;;;;;;;;;34.34;39.48;101240.55;104991;1291;67986;-59
2023/09/28 09:43:07;;;;;;;;;;;;;;;35.21;37.62;101241.81;105005;1289;71736;-58
2023/09/28 09:45:54;;;;;;;;;;;;;;;35.54;37.06;101242.14;104981;1294;62625;-59
2023/09/28 09:48:41;;;;;;;;;;;;;;;35.76;37.62;101234.91;104955;1290;61273;-59
2023/09/28 09:51:28;;;;;;;;;;;;;;;35.73;33.95;101234.29;105005;1294;77568;-58
2023/09/28 09:54:18;;;;;;;;;;;;;;;35.38;33.31;101234.86;104960;1289;71077;-58
2023/09/28 09:57:05;;;;;;;;;;;;;;;35.18;31.47;101237.27;104988;1294;73183;-59
2023/09/28 09:59:53;;;;;;;;;;;;;;;35.32;33.05;101236.46;106308;1292;58938;-59
2023/09/28 10:02:41;;;;;;;;;;;;;;;35.72;31.26;101238.40;106294;1288;59022;-60
2023/09/28 10:05:28;;;;;;;;;;;;;;;36.09;33.86;101240.27;106344;1289;74951;-60
2023/09/28 10:08:15;;;;;;;;;;;;;;;37.00;33.24;101238.97;105863;1290;203361;-60
2023/09/28 10:11:04;;;;;;;;;;;;;;;37.08;30.20;101238.73;106231;1289;71311;-59
2023/09/28 10:13:50;;;;;;;;;;;;;;;36.33;28.44;101235.29;106295;1289;59865;-59
2023/09/28 10:16:37;;;;;;;;;;;;;;;36.55;31.80;101229.54;106259;1289;59867;-60
2023/09/28 10:19:24;;;;;;;;;;;;;;;37.37;30.31;101228.21;106252;1288;75105;-60
2023/09/28 10:22:11;;;;;;;;;;;;;;;37.77;30.12;101227.23;106290;1290;67494;-59
2023/09/28 10:24:57;;;;;;;;;;;;;;;38.41;30.14;101225.15;106264;1289;72033;-60
2023/09/28 10:27:43;;;;;;;;;;;;;;;38.99;30.86;101228.95;106237;1289;59269;-60
2023/09/28 10:30:29;;;;;;;;;;;;;;;38.94;27.31;101229.91;106270;1288;58919;-61
2023/09/28 10:33:16;;;;;;;;;;;;;;;38.07;26.93;101234.91;106249;1289;73362;-60
2023/09/28 10:36:12;;;;;;;;;;;;;;;37.93;28.01;101239.14;106267;1290;67450;-60
2023/09/28 10:39:16;;;;;;;;;;;;;;;37.40;25.73;101241.70;105240;1289;72537;-60
2023/09/28 10:42:06;;;;;;;;;;;;;;;37.44;27.06;101243.71;104914;1290;61180;-60
2023/09/28 10:44:53;;;;;;;;;;;;;;;37.77;26.09;101248.02;104906;1289;61300;-59
2023/09/28 10:47:39;;;;;;;;;;;;;;;37.18;25.50;101243.24;104779;1297;73376;-59
2023/09/28 10:50:25;;;;;;;;;;;;;;;36.86;25.66;101247.11;104899;1289;67371;-58
2023/09/28 10:53:11;;;;;;;;;;;;;;;36.91;25.74;101244.29;104873;1294;71577;-57
2023/09/28 10:55:58;;;;;;;;;;;;;;;37.22;25.64;101244.54;104889;1291;61160;-59
2023/09/28 10:58:46;;;;;;;;;;;;;;;37.84;26.49;101249.10;106224;1289;58938;-59
2023/09/28 11:01:31;;;;;;;;;;;;;;;38.92;27.27;101251.30;106216;1289;74520;-59
2023/09/28 11:04:17;;;;;;;;;;;;;;;39.90;26.07;101249.06;106147;1289;68536;-58
2023/09/28 11:07:05;;;;;;;;;;;;;;;40.19;25.74;101248.13;106261;1292;72877;-59
2023/09/28 11:09:51;;;;;;;;;;;;;;;40.08;25.16;101239.30;106253;1289;59139;-60
2023/09/28 11:12:37;;;;;;;;;;;;;;;40.65;25.86;101229.90;106267;1292;59209;-59
2023/09/28 11:15:23;;;;;;;;;;;;;;;41.31;25.59;101227.81;106257;1289;73305;-59
2023/09/28 11:18:08;;;;;;;;;;;;;;;41.66;25.59;101227.06;106269;1289;67292;-60
2023/09/28 11:20:58;;;;;;;;;;;;;;;41.32;23.11;101225.98;106258;1289;71301;-60
2023/09/28 11:23:45;;;;;;;;;;;;;;;40.58;24.20;101235.80;106109;1291;59344;-59
2023/09/28 11:26:31;;;;;;;;;;;;;;;40.94;24.45;101230.88;106353;1288;59288;-60
2023/09/28 11:29:17;;;;;;;;;;;;;;;41.28;23.90;101226.23;106250;1289;74512;-60
2023/09/28 11:32:03;;;;;;;;;;;;;;;41.19;22.88;101223.55;106276;1289;67238;-60
2023/09/28 11:34:49;;;;;;;;;;;;;;;40.61;22.79;101223.05;106255;1289;71683;-60
2023/09/28 11:37:34;;;;;;;;;;;;;;;40.59;21.92;101223.71;106177;1289;82602;-60
2023/09/28 11:40:20;;;;;;;;;;;;;;;39.90;21.88;101220.73;106256;1289;59192;-60
2023/09/28 11:43:09;;;;;;;;;;;;;;;39.82;22.11;101216.19;106290;1289;74190;-60
2023/09/28 11:45:56;;;;;;;;;;;;;;;39.87;22.30;101215.62;106226;1289;67340;-59
2023/09/28 11:48:41;;;;;;;;;;;;;;;39.94;22.19;101213.92;106266;1289;72536;-60
2023/09/28 11:51:29;;;;;;;;;;;;;;;40.56;22.97;101206.80;106233;1289;58990;-59
2023/09/28 11:54:15;;;;;;;;;;;;;;;41.18;22.28;101202.64;106254;1289;59204;-59
2023/09/28 11:57:01;;;;;;;;;;;;;;;41.25;21.34;101196.61;106243;1289;73213;-59
2023/09/28 11:59:47;;;;;;;;;;;;;;;40.88;21.37;101193.37;106246;1289;67283;-60
2023/09/28 12:02:33;;;;;;;;;;;;;;;40.77;21.85;101193.52;106227;1289;72562;-60
2023/09/28 12:05:19;;;;;;;;;;;;;;;40.84;21.16;101193.73;106209;1289;59389;-60
2023/09/28 12:08:06;;;;;;;;;;;;;;;40.00;21.34;101187.62;106240;1289;59788;-59
2023/09/28 12:10:52;;;;;;;;;;;;;;;40.11;22.02;101190.45;106222;1289;74395;-60
2023/09/28 12:13:38;;;;;;;;;;;;;;;40.31;21.58;101185.59;106268;1289;68504;-60
2023/09/28 12:16:25;;;;;;;;;;;;;;;40.67;21.91;101183.88;106252;1288;71818;-60
2023/09/28 12:19:11;;;;;;;;;;;;;;;40.13;20.28;101182.27;106250;1288;59144;-59
2023/09/28 12:22:03;;;;;;;;;;;;;;;38.56;20.92;101178.33;106285;1289;59700;-58
2023/09/28 12:24:49;;;;;;;;;;;;;;;38.35;21.81;101178.52;106257;1289;74377;-58
2023/09/28 12:27:37;;;;;;;;;;;;;;;38.67;21.33;101176.36;106242;1289;68452;-59
2023/09/28 12:30:23;;;;;;;;;;;;;;;38.66;21.62;101167.66;106228;1289;72208;-59
2023/09/28 12:33:09;;;;;;;;;;;;;;;38.89;21.41;101173.12;106217;1289;59524;-59
2023/09/28 12:35:56;;;;;;;;;;;;;;;38.08;21.15;101170.91;106264;1291;58873;-59
2023/09/28 12:38:42;;;;;;;;;;;;;;;37.29;21.59;101170.42;106268;1289;74597;-59
2023/09/28 12:41:27;;;;;;;;;;;;;;;37.19;21.71;101165.17;106242;1289;68571;-59
2023/09/28 12:44:13;;;;;;;;;;;;;;;36.68;21.98;101165.80;106247;1291;72216;-58
2023/09/28 12:46:59;;;;;;;;;;;;;;;36.35;22.30;101162.16;106171;1289;58935;-58
2023/09/28 12:49:45;;;;;;;;;;;;;;;36.56;22.24;101148.89;106230;1291;58833;-63
2023/09/28 12:52:31;;;;;;;;;;;;;;;36.67;22.48;101148.26;106254;1289;73384;-59
2023/09/28 12:55:17;;;;;;;;;;;;;;;36.89;22.64;101146.25;106248;1288;68369;-59
2023/09/28 12:58:03;;;;;;;;;;;;;;;36.69;22.68;101147.70;106172;1288;72586;-59
2023/09/28 13:00:49;;;;;;;;;;;;;;;36.48;22.78;101150.80;106239;1289;59098;-59
2023/09/28 13:03:35;;;;;;;;;;;;;;;36.77;22.95;101147.31;106264;1288;58918;-60
2023/09/28 13:06:21;;;;;;;;;;;;;;;36.82;22.53;101148.66;106225;1289;74527;-59
2023/09/28 13:09:07;;;;;;;;;;;;;;;35.82;23.14;101152.18;106237;1289;67363;-60
2023/09/28 13:11:53;;;;;;;;;;;;;;;34.67;23.57;101146.27;106236;1288;71414;-59
2023/09/28 13:14:39;;;;;;;;;;;;;;;33.61;24.47;101147.19;106217;1288;59123;-59
2023/09/28 13:17:30;;;;;;;;;;;;;;;32.86;24.91;101144.06;106237;1289;60620;-60
2023/09/28 13:20:27;;;;;;;;;;;;;;;32.37;24.61;101140.65;106276;1288;73384;-59
2023/09/28 13:23:12;;;;;;;;;;;;;;;32.03;24.59;101139.21;106250;1288;67545;-59
2023/09/28 13:25:58;;;;;;;;;;;;;;;31.71;25.27;101150.59;106221;1288;72518;-60
2023/09/28 13:28:45;;;;;;;;;;;;;;;31.29;26.02;101148.01;106185;1289;59316;-60
2023/09/28 13:31:31;;;;;;;;;;;;;;;30.74;26.97;101145.38;106220;1289;59042;-58
2023/09/28 13:34:20;;;;;;;;;;;;;;;30.36;26.57;101139.58;106243;1289;72861;-59
2023/09/28 13:37:06;;;;;;;;;;;;;;;30.19;26.77;101133.73;106256;1290;67421;-59
2023/09/28 13:39:53;;;;;;;;;;;;;;;30.04;27.33;101133.64;106123;1289;71394;-59
2023/09/28 13:42:39;;;;;;;;;;;;;;;29.88;27.83;101133.48;106164;1289;58957;-59
2023/09/28 13:45:25;;;;;;;;;;;;;;;29.79;28.23;101127.73;106257;1289;58779;-58
2023/09/28 13:48:11;;;;;;;;;;;;;;;29.72;27.65;101126.01;106265;1288;75722;-59
2023/09/28 13:50:57;;;;;;;;;;;;;;;29.66;28.71;101126.33;106263;1289;67909;-59
2023/09/28 13:53:43;;;;;;;;;;;;;;;29.54;28.37;101124.39;106235;1289;72250;-59
2023/09/28 13:56:34;;;;;;;;;;;;;;;29.48;29.18;101126.00;106276;1288;59370;-58
2023/09/28 13:59:20;;;;;;;;;;;;;;;29.36;29.13;101121.34;106231;1289;60032;-59
2023/09/28 14:02:08;;;;;;;;;;;;;;;29.31;28.98;101115.93;106278;1288;73257;-59
2023/09/28 14:04:54;;;;;;;;;;;;;;;29.31;29.04;101111.83;106268;1288;67956;-58